sensor_id;sensor_type;location;lat;lon;timestamp;pressure;altitude;pressure_sealevel;temperature;humidity
58967;BME280;44744;51.894;5.080;2023-02-01T00:00:45;102143.08;;;4.36;77.30
58967;BME280;44744;51.894;5.080;2023-02-01T00:01:45;102136.06;;;4.37;77.35
58967;BME280;44744;51.894;5.080;2023-02-01T00:02:46;102135.35;;;4.38;77.41
58967;BME280;44744;51.894;5.080;2023-02-01T00:03:46;102132.02;;;4.39;77.65
58967;BME280;44744;51.894;5.080;2023-02-01T00:04:46;102134.48;;;4.40;77.76
58967;BME280;44744;51.894;5.080;2023-02-01T00:05:57;102135.84;;;4.42;77.77
58967;BME280;44744;51.894;5.080;2023-02-01T00:06:57;102141.27;;;4.43;78.04
58967;BME280;44744;51.894;5.080;2023-02-01T00:07:58;102143.71;;;4.45;78.34
58967;BME280;44744;51.894;5.080;2023-02-01T00:08:58;102145.45;;;4.46;78.23
58967;BME280;44744;51.894;5.080;2023-02-01T00:09:58;102142.98;;;4.48;78.31
58967;BME280;44744;51.894;5.080;2023-02-01T00:11:10;102140.53;;;4.48;78.39
58967;BME280;44744;51.894;5.080;2023-02-01T00:12:12;102139.46;;;4.50;78.25
58967;BME280;44744;51.894;5.080;2023-02-01T00:13:12;102137.89;;;4.50;78.32
58967;BME280;44744;51.894;5.080;2023-02-01T00:14:12;102140.50;;;4.51;78.20
58967;BME280;44744;51.894;5.080;2023-02-01T00:15:13;102136.12;;;4.51;78.48
58967;BME280;44744;51.894;5.080;2023-02-01T00:17:13;102140.48;;;4.53;78.20
58967;BME280;44744;51.894;5.080;2023-02-01T00:18:14;102148.02;;;4.53;78.37
58967;BME280;44744;51.894;5.080;2023-02-01T00:19:14;102149.06;;;4.54;78.09
58967;BME280;44744;51.894;5.080;2023-02-01T00:20:15;102146.77;;;4.54;78.30
58967;BME280;44744;51.894;5.080;2023-02-01T00:21:18;102146.59;;;4.55;78.35
58967;BME280;44744;51.894;5.080;2023-02-01T00:22:19;102146.41;;;4.56;78.15
58967;BME280;44744;51.894;5.080;2023-02-01T00:23:19;102147.27;;;4.57;78.57
58967;BME280;44744;51.894;5.080;2023-02-01T00:24:19;102148.84;;;4.59;78.63
58967;BME280;44744;51.894;5.080;2023-02-01T00:25:19;102145.67;;;4.59;78.55
58967;BME280;44744;51.894;5.080;2023-02-01T00:26:34;102137.09;;;4.59;78.75
58967;BME280;44744;51.894;5.080;2023-02-01T00:27:35;102134.11;;;4.59;78.75
58967;BME280;44744;51.894;5.080;2023-02-01T00:28:35;102128.86;;;4.59;78.96
58967;BME280;44744;51.894;5.080;2023-02-01T00:29:35;102127.61;;;4.60;78.71
58967;BME280;44744;51.894;5.080;2023-02-01T00:30:36;102128.32;;;4.61;78.62
58967;BME280;44744;51.894;5.080;2023-02-01T00:31:36;102124.64;;;4.61;78.69
58967;BME280;44744;51.894;5.080;2023-02-01T00:32:36;102124.83;;;4.60;78.67
58967;BME280;44744;51.894;5.080;2023-02-01T00:33:37;102125.88;;;4.59;78.46
58967;BME280;44744;51.894;5.080;2023-02-01T00:34:37;102128.52;;;4.59;78.38
58967;BME280;44744;51.894;5.080;2023-02-01T00:35:37;102133.08;;;4.58;78.43
58967;BME280;44744;51.894;5.080;2023-02-01T00:36:38;102140.27;;;4.58;78.60
58967;BME280;44744;51.894;5.080;2023-02-01T00:37:38;102142.02;;;4.56;78.46
58967;BME280;44744;51.894;5.080;2023-02-01T00:38:38;102139.41;;;4.55;78.43
58967;BME280;44744;51.894;5.080;2023-02-01T00:39:39;102139.23;;;4.55;78.43
58967;BME280;44744;51.894;5.080;2023-02-01T00:40:39;102136.07;;;4.56;78.65
58967;BME280;44744;51.894;5.080;2023-02-01T00:41:39;102128.71;;;4.56;78.69
58967;BME280;44744;51.894;5.080;2023-02-01T00:42:39;102128.36;;;4.56;78.67
58967;BME280;44744;51.894;5.080;2023-02-01T00:43:40;102126.95;;;4.56;79.04
58967;BME280;44744;51.894;5.080;2023-02-01T00:44:41;102130.64;;;4.57;78.83
58967;BME280;44744;51.894;5.080;2023-02-01T00:45:41;102131.52;;;4.56;78.78
58967;BME280;44744;51.894;5.080;2023-02-01T00:46:42;102131.50;;;4.56;78.79
58967;BME280;44744;51.894;5.080;2023-02-01T00:47:42;102125.20;;;4.56;78.70
58967;BME280;44744;51.894;5.080;2023-02-01T00:48:42;102127.31;;;4.56;79.00
58967;BME280;44744;51.894;5.080;2023-02-01T00:49:43;102124.52;;;4.55;78.96
58967;BME280;44744;51.894;5.080;2023-02-01T00:50:43;102125.58;;;4.55;78.78
58967;BME280;44744;51.894;5.080;2023-02-01T00:51:44;102126.10;;;4.54;78.76
58967;BME280;44744;51.894;5.080;2023-02-01T00:52:44;102125.23;;;4.53;78.51
58967;BME280;44744;51.894;5.080;2023-02-01T00:53:44;102126.66;;;4.50;78.60
58967;BME280;44744;51.894;5.080;2023-02-01T00:54:44;102128.77;;;4.49;78.54
58967;BME280;44744;51.894;5.080;2023-02-01T00:55:48;102131.06;;;4.48;78.54
58967;BME280;44744;51.894;5.080;2023-02-01T00:56:48;102136.17;;;4.46;78.55
58967;BME280;44744;51.894;5.080;2023-02-01T00:57:48;102136.18;;;4.44;78.65
58967;BME280;44744;51.894;5.080;2023-02-01T00:58:49;102140.21;;;4.44;78.53
58967;BME280;44744;51.894;5.080;2023-02-01T00:59:49;102146.35;;;4.43;78.60
58967;BME280;44744;51.894;5.080;2023-02-01T01:00:49;102147.21;;;4.43;78.80
58967;BME280;44744;51.894;5.080;2023-02-01T01:01:50;102142.85;;;4.43;78.73
58967;BME280;44744;51.894;5.080;2023-02-01T01:02:50;102141.09;;;4.43;78.97
58967;BME280;44744;51.894;5.080;2023-02-01T01:03:56;102134.26;;;4.44;78.97
58967;BME280;44744;51.894;5.080;2023-02-01T01:04:56;102130.40;;;4.43;78.92
58967;BME280;44744;51.894;5.080;2023-02-01T01:05:57;102124.30;;;4.41;79.07
58967;BME280;44744;51.894;5.080;2023-02-01T01:07:17;102122.54;;;4.41;78.98
58967;BME280;44744;51.894;5.080;2023-02-01T01:08:18;102123.25;;;4.40;78.85
58967;BME280;44744;51.894;5.080;2023-02-01T01:09:18;102121.50;;;4.39;78.94
58967;BME280;44744;51.894;5.080;2023-02-01T01:10:18;102112.40;;;4.39;79.04
58967;BME280;44744;51.894;5.080;2023-02-01T01:11:22;102118.01;;;4.38;78.67
58967;BME280;44744;51.894;5.080;2023-02-01T01:12:23;102116.61;;;4.37;78.65
58967;BME280;44744;51.894;5.080;2023-02-01T01:13:23;102116.81;;;4.36;78.75
58967;BME280;44744;51.894;5.080;2023-02-01T01:14:24;102116.13;;;4.34;78.55
58967;BME280;44744;51.894;5.080;2023-02-01T01:15:24;102116.13;;;4.34;78.64
58967;BME280;44744;51.894;5.080;2023-02-01T01:16:26;102115.61;;;4.32;78.35
58967;BME280;44744;51.894;5.080;2023-02-01T01:17:26;102115.09;;;4.32;78.43
58967;BME280;44744;51.894;5.080;2023-02-01T01:18:26;102115.83;;;4.28;78.63
58967;BME280;44744;51.894;5.080;2023-02-01T01:19:27;102118.10;;;4.27;78.63
58967;BME280;44744;51.894;5.080;2023-02-01T01:20:27;102117.06;;;4.25;78.51
58967;BME280;44744;51.894;5.080;2023-02-01T01:21:28;102118.13;;;4.25;78.60
58967;BME280;44744;51.894;5.080;2023-02-01T01:22:29;102114.63;;;4.26;78.80
58967;BME280;44744;51.894;5.080;2023-02-01T01:23:29;102113.92;;;4.26;78.94
58967;BME280;44744;51.894;5.080;2023-02-01T01:24:29;102115.14;;;4.26;78.88
58967;BME280;44744;51.894;5.080;2023-02-01T01:25:30;102116.88;;;4.27;78.95
58967;BME280;44744;51.894;5.080;2023-02-01T01:26:30;102112.69;;;4.26;78.95
58967;BME280;44744;51.894;5.080;2023-02-01T01:27:30;102114.79;;;4.26;78.92
58967;BME280;44744;51.894;5.080;2023-02-01T01:28:31;102117.60;;;4.25;78.88
58967;BME280;44744;51.894;5.080;2023-02-01T01:29:31;102117.60;;;4.25;78.64
58967;BME280;44744;51.894;5.080;2023-02-01T01:30:33;102110.09;;;4.23;78.66
58967;BME280;44744;51.894;5.080;2023-02-01T01:31:34;102106.08;;;4.21;78.41
58967;BME280;44744;51.894;5.080;2023-02-01T01:32:34;102106.10;;;4.19;78.44
58967;BME280;44744;51.894;5.080;2023-02-01T01:33:34;102107.49;;;4.18;78.39
58967;BME280;44744;51.894;5.080;2023-02-01T01:34:34;102106.80;;;4.17;78.64
58967;BME280;44744;51.894;5.080;2023-02-01T01:35:35;102109.44;;;4.17;78.58
58967;BME280;44744;51.894;5.080;2023-02-01T01:36:35;102110.85;;;4.15;78.36
58967;BME280;44744;51.894;5.080;2023-02-01T01:37:35;102111.73;;;4.15;78.34
58967;BME280;44744;51.894;5.080;2023-02-01T01:38:36;102113.83;;;4.14;78.59
58967;BME280;44744;51.894;5.080;2023-02-01T01:39:36;102109.44;;;4.15;78.52
58967;BME280;44744;51.894;5.080;2023-02-01T01:40:37;102116.27;;;4.15;78.49
58967;BME280;44744;51.894;5.080;2023-02-01T01:41:37;102116.10;;;4.15;78.84
58967;BME280;44744;51.894;5.080;2023-02-01T01:42:43;102119.42;;;4.15;78.80
58967;BME280;44744;51.894;5.080;2023-02-01T01:45:03;102125.73;;;4.16;78.89
58967;BME280;44744;51.894;5.080;2023-02-01T01:46:04;102124.15;;;4.16;78.77
58967;BME280;44744;51.894;5.080;2023-02-01T01:47:04;102121.70;;;4.15;78.72
58967;BME280;44744;51.894;5.080;2023-02-01T01:48:08;102117.49;;;4.16;78.56
58967;BME280;44744;51.894;5.080;2023-02-01T01:49:17;102118.73;;;4.16;78.34
58967;BME280;44744;51.894;5.080;2023-02-01T01:50:27;102114.70;;;4.15;78.23
58967;BME280;44744;51.894;5.080;2023-02-01T01:51:30;102109.62;;;4.15;78.40
58967;BME280;44744;51.894;5.080;2023-02-01T01:52:32;102106.66;;;4.14;78.32
58967;BME280;44744;51.894;5.080;2023-02-01T01:53:47;102104.54;;;4.15;78.35
58967;BME280;44744;51.894;5.080;2023-02-01T01:54:52;102107.52;;;4.15;78.22
58967;BME280;44744;51.894;5.080;2023-02-01T01:55:54;102107.52;;;4.16;78.33
58967;BME280;44744;51.894;5.080;2023-02-01T01:57:01;102109.42;;;4.18;78.37
58967;BME280;44744;51.894;5.080;2023-02-01T01:58:09;102108.02;;;4.20;78.51
58967;BME280;44744;51.894;5.080;2023-02-01T01:59:11;102106.95;;;4.21;78.51
58967;BME280;44744;51.894;5.080;2023-02-01T02:00:14;102104.64;;;4.23;78.65
58967;BME280;44744;51.894;5.080;2023-02-01T02:01:16;102106.73;;;4.26;78.79
58967;BME280;44744;51.894;5.080;2023-02-01T02:02:17;102101.28;;;4.29;78.87
58967;BME280;44744;51.894;5.080;2023-02-01T02:03:20;102097.23;;;4.31;78.74
58967;BME280;44744;51.894;5.080;2023-02-01T02:04:22;102092.14;;;4.33;78.85
58967;BME280;44744;51.894;5.080;2023-02-01T02:05:24;102089.66;;;4.36;78.77
58967;BME280;44744;51.894;5.080;2023-02-01T02:06:45;102080.38;;;4.37;78.42
58967;BME280;44744;51.894;5.080;2023-02-01T02:07:49;102079.98;;;4.38;78.85
58967;BME280;44744;51.894;5.080;2023-02-01T02:08:50;102081.73;;;4.40;78.62
58967;BME280;44744;51.894;5.080;2023-02-01T02:09:50;102079.80;;;4.41;78.51
58967;BME280;44744;51.894;5.080;2023-02-01T02:10:51;102085.23;;;4.41;78.20
58967;BME280;44744;51.894;5.080;2023-02-01T02:11:52;102087.50;;;4.42;78.29
58967;BME280;44744;51.894;5.080;2023-02-01T02:12:52;102087.30;;;4.43;78.17
58967;BME280;44744;51.894;5.080;2023-02-01T02:13:54;102089.59;;;4.44;78.12
58967;BME280;44744;51.894;5.080;2023-02-01T02:14:56;102091.15;;;4.46;78.32
58967;BME280;44744;51.894;5.080;2023-02-01T02:18:38;102086.36;;;4.51;78.49
58967;BME280;44744;51.894;5.080;2023-02-01T02:21:25;102081.95;;;4.54;78.87
58967;BME280;44744;51.894;5.080;2023-02-01T02:27:58;102069.64;;;4.59;78.79
58967;BME280;44744;51.894;5.080;2023-02-01T02:30:44;102070.48;;;4.60;78.69
58967;BME280;44744;51.894;5.080;2023-02-01T02:31:58;102066.80;;;4.61;78.60
58967;BME280;44744;51.894;5.080;2023-02-01T02:34:35;102066.79;;;4.63;78.80
58967;BME280;44744;51.894;5.080;2023-02-01T02:37:01;102069.38;;;4.66;78.95
58967;BME280;44744;51.894;5.080;2023-02-01T02:39:50;102064.08;;;4.71;79.04
58967;BME280;44744;51.894;5.080;2023-02-01T02:41:03;102061.08;;;4.73;79.10
58967;BME280;44744;51.894;5.080;2023-02-01T02:42:11;102059.63;;;4.76;79.29
58967;BME280;44744;51.894;5.080;2023-02-01T02:43:23;102056.10;;;4.78;79.18
58967;BME280;44744;51.894;5.080;2023-02-01T02:44:35;102057.13;;;4.82;79.37
58967;BME280;44744;51.894;5.080;2023-02-01T02:47:15;102053.05;;;4.84;79.06
58967;BME280;44744;51.894;5.080;2023-02-01T02:48:40;102053.21;;;4.86;78.82
58967;BME280;44744;51.894;5.080;2023-02-01T02:50:12;102046.02;;;4.88;78.98
58967;BME280;44744;51.894;5.080;2023-02-01T02:51:43;102047.90;;;4.90;78.61
58967;BME280;44744;51.894;5.080;2023-02-01T02:52:52;102051.38;;;4.93;78.37
58967;BME280;44744;51.894;5.080;2023-02-01T02:54:09;102048.03;;;4.95;78.19
58967;BME280;44744;51.894;5.080;2023-02-01T02:55:11;102049.23;;;4.97;78.23
58967;BME280;44744;51.894;5.080;2023-02-01T02:56:12;102055.51;;;5.00;78.30
58967;BME280;44744;51.894;5.080;2023-02-01T02:57:16;102056.70;;;5.02;78.42
58967;BME280;44744;51.894;5.080;2023-02-01T02:58:19;102056.85;;;5.04;78.55
58967;BME280;44744;51.894;5.080;2023-02-01T02:59:21;102056.12;;;5.06;78.61
58967;BME280;44744;51.894;5.080;2023-02-01T03:00:28;102061.17;;;5.10;78.58
58967;BME280;44744;51.894;5.080;2023-02-01T03:01:29;102063.95;;;5.11;78.76
58967;BME280;44744;51.894;5.080;2023-02-01T03:02:30;102060.95;;;5.13;78.67
58967;BME280;44744;51.894;5.080;2023-02-01T03:03:36;102057.09;;;5.14;78.66
58967;BME280;44744;51.894;5.080;2023-02-01T03:04:37;102050.77;;;5.15;78.50
58967;BME280;44744;51.894;5.080;2023-02-01T03:05:42;102055.83;;;5.16;78.11
58967;BME280;44744;51.894;5.080;2023-02-01T03:06:44;102049.67;;;5.17;78.11
58967;BME280;44744;51.894;5.080;2023-02-01T03:09:12;102041.42;;;5.18;77.99
58967;BME280;44744;51.894;5.080;2023-02-01T03:11:36;102031.23;;;5.19;77.77
58967;BME280;44744;51.894;5.080;2023-02-01T03:12:41;102035.63;;;5.19;77.64
58967;BME280;44744;51.894;5.080;2023-02-01T03:13:45;102036.13;;;5.20;77.76
58967;BME280;44744;51.894;5.080;2023-02-01T03:14:49;102037.52;;;5.21;77.74
58967;BME280;44744;51.894;5.080;2023-02-01T03:16:03;102038.38;;;5.22;77.92
58967;BME280;44744;51.894;5.080;2023-02-01T03:17:12;102034.65;;;5.25;77.99
58967;BME280;44744;51.894;5.080;2023-02-01T03:18:19;102027.09;;;5.27;77.91
58967;BME280;44744;51.894;5.080;2023-02-01T03:19:25;102028.13;;;5.28;77.88
58967;BME280;44744;51.894;5.080;2023-02-01T03:20:29;102024.45;;;5.28;78.00
58967;BME280;44744;51.894;5.080;2023-02-01T03:21:35;102019.00;;;5.29;77.94
58967;BME280;44744;51.894;5.080;2023-02-01T03:22:37;102016.54;;;5.29;77.70
58967;BME280;44744;51.894;5.080;2023-02-01T03:23:39;102014.44;;;5.29;77.58
58967;BME280;44744;51.894;5.080;2023-02-01T03:24:49;102018.83;;;5.28;77.58
58967;BME280;44744;51.894;5.080;2023-02-01T03:25:52;102018.84;;;5.28;77.45
58967;BME280;44744;51.894;5.080;2023-02-01T03:26:55;102029.19;;;5.27;77.22
58967;BME280;44744;51.894;5.080;2023-02-01T03:28:04;102029.90;;;5.27;77.40
58967;BME280;44744;51.894;5.080;2023-02-01T03:29:11;102030.45;;;5.26;77.05
58967;BME280;44744;51.894;5.080;2023-02-01T03:30:37;102031.31;;;5.26;76.66
58967;BME280;44744;51.894;5.080;2023-02-01T03:31:38;102017.83;;;5.25;76.67
58967;BME280;44744;51.894;5.080;2023-02-01T03:32:40;102020.65;;;5.24;77.19
58967;BME280;44744;51.894;5.080;2023-02-01T03:33:42;102016.45;;;5.23;77.33
58967;BME280;44744;51.894;5.080;2023-02-01T03:34:44;102022.73;;;5.25;77.10
58967;BME280;44744;51.894;5.080;2023-02-01T03:37:05;102023.43;;;5.25;77.22
58967;BME280;44744;51.894;5.080;2023-02-01T03:38:30;102030.77;;;5.26;77.20
58967;BME280;44744;51.894;5.080;2023-02-01T03:40:04;102029.77;;;5.25;76.95
58967;BME280;44744;51.894;5.080;2023-02-01T03:42:24;102025.23;;;5.22;76.76
58967;BME280;44744;51.894;5.080;2023-02-01T03:43:30;102020.53;;;5.20;76.63
58967;BME280;44744;51.894;5.080;2023-02-01T03:44:38;102022.29;;;5.19;76.34
58967;BME280;44744;51.894;5.080;2023-02-01T03:45:43;102025.64;;;5.18;76.23
58967;BME280;44744;51.894;5.080;2023-02-01T03:46:49;102022.51;;;5.16;76.08
58967;BME280;44744;51.894;5.080;2023-02-01T03:47:56;102022.55;;;5.13;76.18
58967;BME280;44744;51.894;5.080;2023-02-01T03:49:02;102028.35;;;5.12;75.88
58967;BME280;44744;51.894;5.080;2023-02-01T03:50:09;102022.93;;;5.11;75.96
58967;BME280;44744;51.894;5.080;2023-02-01T03:51:11;102027.48;;;5.10;75.97
58967;BME280;44744;51.894;5.080;2023-02-01T03:52:28;102025.38;;;5.11;76.16
58967;BME280;44744;51.894;5.080;2023-02-01T03:53:30;102028.55;;;5.10;76.31
58967;BME280;44744;51.894;5.080;2023-02-01T03:54:32;102026.79;;;5.10;76.46
58967;BME280;44744;51.894;5.080;2023-02-01T03:55:34;102028.35;;;5.11;76.22
58967;BME280;44744;51.894;5.080;2023-02-01T03:56:37;102027.67;;;5.11;76.31
58967;BME280;44744;51.894;5.080;2023-02-01T03:57:44;102026.77;;;5.11;76.18
58967;BME280;44744;51.894;5.080;2023-02-01T03:58:46;102035.73;;;5.10;76.37
58967;BME280;44744;51.894;5.080;2023-02-01T03:59:46;102032.59;;;5.09;76.12
58967;BME280;44744;51.894;5.080;2023-02-01T04:00:58;102035.05;;;5.09;75.98
58967;BME280;44744;51.894;5.080;2023-02-01T04:01:59;102031.89;;;5.09;75.74
58967;BME280;44744;51.894;5.080;2023-02-01T04:03:00;102034.02;;;5.07;75.94
58967;BME280;44744;51.894;5.080;2023-02-01T04:04:05;102036.48;;;5.06;75.71
58967;BME280;44744;51.894;5.080;2023-02-01T04:05:05;102034.75;;;5.05;75.70
58967;BME280;44744;51.894;5.080;2023-02-01T04:06:06;102034.77;;;5.04;75.50
58967;BME280;44744;51.894;5.080;2023-02-01T04:07:06;102032.34;;;5.02;75.49
58967;BME280;44744;51.894;5.080;2023-02-01T04:08:06;102034.27;;;5.01;75.51
58967;BME280;44744;51.894;5.080;2023-02-01T04:09:06;102030.08;;;5.00;75.62
58967;BME280;44744;51.894;5.080;2023-02-01T04:10:09;102033.23;;;5.01;76.05
58967;BME280;44744;51.894;5.080;2023-02-01T04:11:09;102039.52;;;5.02;76.27
58967;BME280;44744;51.894;5.080;2023-02-01T04:12:12;102039.15;;;5.03;76.50
58967;BME280;44744;51.894;5.080;2023-02-01T04:13:13;102042.13;;;5.05;76.47
58967;BME280;44744;51.894;5.080;2023-02-01T04:14:13;102037.18;;;5.06;76.31
58967;BME280;44744;51.894;5.080;2023-02-01T04:15:14;102044.90;;;5.06;76.61
58967;BME280;44744;51.894;5.080;2023-02-01T04:16:14;102040.32;;;5.07;76.62
58967;BME280;44744;51.894;5.080;2023-02-01T04:17:15;102040.50;;;5.07;76.50
58967;BME280;44744;51.894;5.080;2023-02-01T04:18:15;102038.23;;;5.06;76.44
58967;BME280;44744;51.894;5.080;2023-02-01T04:19:15;102040.52;;;5.06;76.50
58967;BME280;44744;51.894;5.080;2023-02-01T04:20:16;102040.89;;;5.05;76.29
58967;BME280;44744;51.894;5.080;2023-02-01T04:21:16;102036.67;;;5.05;76.40
58967;BME280;44744;51.894;5.080;2023-02-01T04:22:17;102033.68;;;5.06;76.30
58967;BME280;44744;51.894;5.080;2023-02-01T04:23:17;102039.29;;;5.06;76.42
58967;BME280;44744;51.894;5.080;2023-02-01T04:24:17;102040.69;;;5.06;76.27
58967;BME280;44744;51.894;5.080;2023-02-01T04:25:17;102038.59;;;5.07;76.41
58967;BME280;44744;51.894;5.080;2023-02-01T04:26:18;102035.77;;;5.08;76.56
58967;BME280;44744;51.894;5.080;2023-02-01T04:27:19;102032.25;;;5.08;76.73
58967;BME280;44744;51.894;5.080;2023-02-01T04:28:19;102033.11;;;5.10;76.88
58967;BME280;44744;51.894;5.080;2023-02-01T04:29:19;102033.10;;;5.11;77.08
58967;BME280;44744;51.894;5.080;2023-02-01T04:30:20;102031.32;;;5.13;77.11
58967;BME280;44744;51.894;5.080;2023-02-01T04:31:20;102031.30;;;5.14;77.45
58967;BME280;44744;51.894;5.080;2023-02-01T04:32:20;102037.77;;;5.16;77.49
58967;BME280;44744;51.894;5.080;2023-02-01T04:33:21;102043.20;;;5.16;77.21
58967;BME280;44744;51.894;5.080;2023-02-01T04:34:21;102042.66;;;5.17;77.34
58967;BME280;44744;51.894;5.080;2023-02-01T04:35:21;102046.16;;;5.17;77.28
58967;BME280;44744;51.894;5.080;2023-02-01T04:36:22;102043.18;;;5.17;76.99
58967;BME280;44744;51.894;5.080;2023-02-01T04:37:22;102044.59;;;5.17;77.08
58967;BME280;44744;51.894;5.080;2023-02-01T04:38:22;102043.89;;;5.17;77.11
58967;BME280;44744;51.894;5.080;2023-02-01T04:39:22;102047.38;;;5.19;76.80
58967;BME280;44744;51.894;5.080;2023-02-01T04:40:23;102045.27;;;5.18;76.90
58967;BME280;44744;51.894;5.080;2023-02-01T04:41:23;102045.29;;;5.17;76.92
58967;BME280;44744;51.894;5.080;2023-02-01T04:42:23;102042.48;;;5.17;76.86
58967;BME280;44744;51.894;5.080;2023-02-01T04:43:24;102042.47;;;5.18;76.96
58967;BME280;44744;51.894;5.080;2023-02-01T04:44:25;102040.70;;;5.20;77.12
58967;BME280;44744;51.894;5.080;2023-02-01T04:45:25;102034.00;;;5.21;77.06
58967;BME280;44744;51.894;5.080;2023-02-01T04:46:25;102029.42;;;5.24;77.28
58967;BME280;44744;51.894;5.080;2023-02-01T04:47:26;102027.65;;;5.25;77.07
58967;BME280;44744;51.894;5.080;2023-02-01T04:48:26;102024.66;;;5.26;77.21
58967;BME280;44744;51.894;5.080;2023-02-01T04:49:26;102020.25;;;5.27;77.34
58967;BME280;44744;51.894;5.080;2023-02-01T04:50:27;102021.81;;;5.28;77.35
58967;BME280;44744;51.894;5.080;2023-02-01T04:51:27;102024.09;;;5.28;77.25
58967;BME280;44744;51.894;5.080;2023-02-01T04:52:27;102024.94;;;5.30;76.96
58967;BME280;44744;51.894;5.080;2023-02-01T04:53:27;102035.13;;;5.29;76.90
58967;BME280;44744;51.894;5.080;2023-02-01T04:54:28;102037.23;;;5.29;76.62
58967;BME280;44744;51.894;5.080;2023-02-01T04:55:28;102035.66;;;5.29;76.65
58967;BME280;44744;51.894;5.080;2023-02-01T04:56:28;102036.17;;;5.29;76.82
58967;BME280;44744;51.894;5.080;2023-02-01T04:57:29;102039.16;;;5.30;76.54
58967;BME280;44744;51.894;5.080;2023-02-01T04:58:29;102036.16;;;5.31;76.26
58967;BME280;44744;51.894;5.080;2023-02-01T04:59:29;102034.93;;;5.31;76.16
58967;BME280;44744;51.894;5.080;2023-02-01T05:00:29;102033.17;;;5.31;76.10
58967;BME280;44744;51.894;5.080;2023-02-01T05:01:30;102028.26;;;5.31;76.13
58967;BME280;44744;51.894;5.080;2023-02-01T05:02:31;102022.98;;;5.32;76.27
58967;BME280;44744;51.894;5.080;2023-02-01T05:03:32;102027.55;;;5.32;76.43
58967;BME280;44744;51.894;5.080;2023-02-01T05:04:33;102032.80;;;5.33;76.50
58967;BME280;44744;51.894;5.080;2023-02-01T05:05:33;102036.64;;;5.34;76.39
58967;BME280;44744;51.894;5.080;2023-02-01T05:06:33;102034.70;;;5.35;76.51
58967;BME280;44744;51.894;5.080;2023-02-01T05:07:33;102031.86;;;5.36;76.38
58967;BME280;44744;51.894;5.080;2023-02-01T05:08:34;102030.48;;;5.36;76.13
58967;BME280;44744;51.894;5.080;2023-02-01T05:09:35;102025.23;;;5.35;76.25
58967;BME280;44744;51.894;5.080;2023-02-01T05:10:36;102021.39;;;5.34;75.93
58967;BME280;44744;51.894;5.080;2023-02-01T05:11:36;102017.71;;;5.32;75.68
58967;BME280;44744;51.894;5.080;2023-02-01T05:12:36;102011.09;;;5.30;75.80
58967;BME280;44744;51.894;5.080;2023-02-01T05:13:37;102010.93;;;5.29;75.78
58967;BME280;44744;51.894;5.080;2023-02-01T05:14:37;102010.59;;;5.28;75.61
58967;BME280;44744;51.894;5.080;2023-02-01T05:15:37;102012.71;;;5.27;75.75
58967;BME280;44744;51.894;5.080;2023-02-01T05:16:37;102010.64;;;5.25;75.55
58967;BME280;44744;51.894;5.080;2023-02-01T05:17:38;102004.68;;;5.24;75.66
58967;BME280;44744;51.894;5.080;2023-02-01T05:18:39;102008.21;;;5.23;75.37
58967;BME280;44744;51.894;5.080;2023-02-01T05:19:39;102007.52;;;5.22;75.62
58967;BME280;44744;51.894;5.080;2023-02-01T05:20:39;102010.84;;;5.23;75.65
58967;BME280;44744;51.894;5.080;2023-02-01T05:21:39;102011.17;;;5.24;75.64
58967;BME280;44744;51.894;5.080;2023-02-01T05:22:45;102012.75;;;5.24;75.90
58967;BME280;44744;51.894;5.080;2023-02-01T05:23:45;102011.52;;;5.25;76.08
58967;BME280;44744;51.894;5.080;2023-02-01T05:24:45;102017.83;;;5.25;76.15
58967;BME280;44744;51.894;5.080;2023-02-01T05:25:45;102019.21;;;5.26;75.99
58967;BME280;44744;51.894;5.080;2023-02-01T05:26:47;102018.86;;;5.26;75.81
58967;BME280;44744;51.894;5.080;2023-02-01T05:27:48;102027.63;;;5.26;76.11
58967;BME280;44744;51.894;5.080;2023-02-01T05:28:48;102026.09;;;5.23;75.87
58967;BME280;44744;51.894;5.080;2023-02-01T05:29:48;102026.48;;;5.21;75.90
58967;BME280;44744;51.894;5.080;2023-02-01T05:30:48;102028.56;;;5.22;75.84
58967;BME280;44744;51.894;5.080;2023-02-01T05:31:49;102035.22;;;5.22;75.70
58967;BME280;44744;51.894;5.080;2023-02-01T05:32:51;102028.41;;;5.20;75.75
58967;BME280;44744;51.894;5.080;2023-02-01T05:33:51;102023.33;;;5.19;75.75
58967;BME280;44744;51.894;5.080;2023-02-01T05:34:51;102027.38;;;5.19;75.75
58967;BME280;44744;51.894;5.080;2023-02-01T05:35:52;102025.27;;;5.18;75.75
58967;BME280;44744;51.894;5.080;2023-02-01T05:36:52;102029.32;;;5.17;75.65
58967;BME280;44744;51.894;5.080;2023-02-01T05:37:52;102031.60;;;5.17;75.68
58967;BME280;44744;51.894;5.080;2023-02-01T05:38:53;102034.05;;;5.18;75.87
58967;BME280;44744;51.894;5.080;2023-02-01T05:39:53;102034.92;;;5.19;76.25
58967;BME280;44744;51.894;5.080;2023-02-01T05:40:53;102036.14;;;5.20;76.23
58967;BME280;44744;51.894;5.080;2023-02-01T05:41:54;102041.74;;;5.20;76.23
58967;BME280;44744;51.894;5.080;2023-02-01T05:42:54;102044.36;;;5.20;76.43
58967;BME280;44744;51.894;5.080;2023-02-01T05:43:54;102045.61;;;5.20;76.58
58967;BME280;44744;51.894;5.080;2023-02-01T05:44:55;102047.01;;;5.20;76.49
58967;BME280;44744;51.894;5.080;2023-02-01T05:45:55;102046.84;;;5.20;76.59
58967;BME280;44744;51.894;5.080;2023-02-01T05:46:55;102045.77;;;5.20;76.42
58967;BME280;44744;51.894;5.080;2023-02-01T05:47:56;102044.54;;;5.21;76.43
58967;BME280;44744;51.894;5.080;2023-02-01T05:48:56;102040.84;;;5.21;76.26
58967;BME280;44744;51.894;5.080;2023-02-01T05:49:56;102042.25;;;5.21;76.30
58967;BME280;44744;51.894;5.080;2023-02-01T05:50:56;102041.36;;;5.22;76.29
58967;BME280;44744;51.894;5.080;2023-02-01T05:51:57;102041.02;;;5.22;76.27
58967;BME280;44744;51.894;5.080;2023-02-01T05:52:57;102044.87;;;5.22;76.21
58967;BME280;44744;51.894;5.080;2023-02-01T05:53:57;102042.42;;;5.22;76.11
58967;BME280;44744;51.894;5.080;2023-02-01T05:54:57;102040.84;;;5.23;76.26
58967;BME280;44744;51.894;5.080;2023-02-01T05:55:58;102041.00;;;5.23;76.37
58967;BME280;44744;51.894;5.080;2023-02-01T05:56:58;102037.83;;;5.24;76.39